createdAt,value
2023-02-25T00:00:17.728Z,2.33
2023-02-25T00:00:49.636Z,3.00
2023-02-25T00:01:24.241Z,3.00
2023-02-25T00:02:03.782Z,3.00
2023-02-25T00:02:36.870Z,3.00
2023-02-25T00:03:08.769Z,3.00
2023-02-25T00:03:41.634Z,3.00
2023-02-25T00:04:13.516Z,3.00
2023-02-25T00:04:45.373Z,3.00
2023-02-25T00:05:19.412Z,3.00
2023-02-25T00:05:51.253Z,3.00
2023-02-25T00:06:24.728Z,3.00
2023-02-25T00:06:56.750Z,3.00
2023-02-25T00:07:29.094Z,3.00
2023-02-25T00:08:01.148Z,3.00
2023-02-25T00:08:33.311Z,3.00
2023-02-25T00:09:06.656Z,3.00
2023-02-25T00:09:38.527Z,3.00
2023-02-25T00:10:13.334Z,3.00
2023-02-25T00:10:45.132Z,3.00
2023-02-25T00:11:20.309Z,3.00
2023-02-25T00:11:52.108Z,3.00
2023-02-25T00:12:23.897Z,3.00
2023-02-25T00:13:00.746Z,3.00
2023-02-25T00:13:40.347Z,3.00
2023-02-25T00:14:12.201Z,3.00
2023-02-25T00:14:45.993Z,3.00
2023-02-25T00:15:17.830Z,3.00
2023-02-25T00:15:49.625Z,3.00
2023-02-25T00:16:23.745Z,3.00
2023-02-25T00:16:56.433Z,3.00
2023-02-25T00:17:28.241Z,3.00
2023-02-25T00:18:00.136Z,3.00
2023-02-25T00:18:32.320Z,3.00
2023-02-25T00:19:04.272Z,3.00
2023-02-25T00:19:36.098Z,3.00
2023-02-25T00:20:15.606Z,3.00
2023-02-25T00:20:47.421Z,3.00
2023-02-25T00:21:19.343Z,3.00
2023-02-25T00:21:51.314Z,3.00
2023-02-25T00:22:24.089Z,3.00
2023-02-25T00:22:55.926Z,3.00
2023-02-25T00:23:28.662Z,3.00
2023-02-25T00:24:15.319Z,3.00
2023-02-25T00:24:47.958Z,3.00
2023-02-25T00:25:19.796Z,3.00
2023-02-25T00:26:00.373Z,3.00
2023-02-25T00:26:32.203Z,3.00
2023-02-25T00:27:05.092Z,3.00
2023-02-25T00:27:37.299Z,3.00
2023-02-25T00:28:09.158Z,3.00
2023-02-25T00:28:41.824Z,3.00
2023-02-25T00:29:14.247Z,3.00
2023-02-25T00:29:46.114Z,3.00
2023-02-25T00:30:17.998Z,3.00
2023-02-25T00:30:50.703Z,3.00
2023-02-25T00:31:24.540Z,3.00
2023-02-25T00:31:56.852Z,3.00
2023-02-25T00:32:29.147Z,3.00
2023-02-25T00:33:01.770Z,3.00
2023-02-25T00:33:33.755Z,3.00
2023-02-25T00:34:05.666Z,3.00
2023-02-25T00:34:37.508Z,3.00
2023-02-25T00:35:12.928Z,3.00
2023-02-25T00:35:44.794Z,3.00
2023-02-25T00:36:21.405Z,3.00
2023-02-25T00:36:54.628Z,3.00
2023-02-25T00:37:26.418Z,3.00
2023-02-25T00:38:10.043Z,3.00
2023-02-25T00:38:48.548Z,3.00
2023-02-25T00:39:20.616Z,3.00
2023-02-25T00:39:52.463Z,3.00
2023-02-25T00:40:24.848Z,3.00
2023-02-25T00:40:56.662Z,3.00
2023-02-25T00:41:30.944Z,3.00
2023-02-25T00:42:02.727Z,3.00
2023-02-25T00:42:34.594Z,3.00
2023-02-25T00:43:07.028Z,3.00
2023-02-25T00:43:42.366Z,3.00
2023-02-25T00:44:17.941Z,3.00
2023-02-25T00:44:51.144Z,3.00
2023-02-25T00:45:23.106Z,3.00
2023-02-25T00:45:54.929Z,3.00
2023-02-25T00:46:28.489Z,3.00
2023-02-25T00:47:00.377Z,3.00
2023-02-25T00:47:32.305Z,3.00
2023-02-25T00:48:04.136Z,3.00
2023-02-25T00:48:37.163Z,3.00
2023-02-25T00:49:08.965Z,3.00
2023-02-25T00:49:41.521Z,3.00
2023-02-25T00:50:14.416Z,3.00
2023-02-25T00:50:46.228Z,3.00
2023-02-25T00:51:27.338Z,3.00
2023-02-25T00:52:00.180Z,3.00
2023-02-25T00:52:33.855Z,3.00
2023-02-25T00:53:05.688Z,3.00
2023-02-25T00:53:38.220Z,3.00
2023-02-25T00:54:10.166Z,3.00
2023-02-25T00:54:42.055Z,3.00
2023-02-25T00:55:13.835Z,3.00
2023-02-25T00:55:45.743Z,3.00
2023-02-25T00:56:20.656Z,3.00
2023-02-25T00:56:53.326Z,3.00
2023-02-25T00:57:25.416Z,3.00
2023-02-25T00:57:57.285Z,3.00
2023-02-25T00:58:29.231Z,3.00
2023-02-25T00:59:00.995Z,3.00
2023-02-25T00:59:33.218Z,3.00
2023-02-25T01:00:11.282Z,3.00
2023-02-25T01:00:51.585Z,3.00
2023-02-25T01:01:33.704Z,3.00
2023-02-25T01:02:05.520Z,3.00
2023-02-25T01:02:37.445Z,3.00
2023-02-25T01:03:09.357Z,3.00
2023-02-25T01:03:41.211Z,3.00
2023-02-25T01:04:13.604Z,3.00
2023-02-25T01:04:45.584Z,3.00
2023-02-25T01:05:17.870Z,3.00
2023-02-25T01:05:50.026Z,3.00
2023-02-25T01:06:23.334Z,3.00
2023-02-25T01:06:55.565Z,3.00
2023-02-25T01:07:27.430Z,3.00
2023-02-25T01:07:59.217Z,3.00
2023-02-25T01:08:31.136Z,3.00
2023-02-25T01:09:06.840Z,3.00
2023-02-25T01:09:38.933Z,3.00
2023-02-25T01:10:11.428Z,3.00
2023-02-25T01:10:43.807Z,3.00
2023-02-25T01:11:16.304Z,3.00
2023-02-25T01:11:49.258Z,3.00
2023-02-25T01:12:21.084Z,3.00
2023-02-25T01:12:52.889Z,3.00
2023-02-25T01:13:25.320Z,3.00
2023-02-25T01:14:03.057Z,3.00
2023-02-25T01:14:35.352Z,3.00
2023-02-25T01:15:07.655Z,3.00
2023-02-25T01:15:39.583Z,3.00
2023-02-25T01:16:17.298Z,3.00
2023-02-25T01:16:51.191Z,3.00
2023-02-25T01:17:23.565Z,3.00
2023-02-25T01:17:55.440Z,3.00
2023-02-25T01:18:27.777Z,3.00
2023-02-25T01:19:04.342Z,3.00
2023-02-25T01:19:36.125Z,3.00
2023-02-25T01:20:12.526Z,3.00
2023-02-25T01:20:44.352Z,3.00
2023-02-25T01:21:18.784Z,3.00
2023-02-25T01:21:54.535Z,3.00
2023-02-25T01:22:26.556Z,3.00
2023-02-25T01:22:58.647Z,3.00
2023-02-25T01:23:30.604Z,3.00
2023-02-25T01:24:09.012Z,3.00
2023-02-25T01:24:41.227Z,3.00
2023-02-25T01:25:14.164Z,3.00
2023-02-25T01:25:45.962Z,3.00
2023-02-25T01:26:17.776Z,3.00
2023-02-25T01:26:53.473Z,3.00
2023-02-25T01:27:25.358Z,3.00
2023-02-25T01:27:58.009Z,3.00
2023-02-25T01:28:29.820Z,3.00
2023-02-25T01:29:01.848Z,3.00
2023-02-25T01:29:40.412Z,3.00
2023-02-25T01:30:12.456Z,3.00
2023-02-25T01:30:45.128Z,3.00
2023-02-25T01:31:25.166Z,3.00
2023-02-25T01:32:02.542Z,3.00
2023-02-25T01:32:35.127Z,3.00
2023-02-25T01:33:07.128Z,3.00
2023-02-25T01:33:39.216Z,3.00
2023-02-25T01:34:15.432Z,3.00
2023-02-25T01:34:47.217Z,3.00
2023-02-25T01:35:51.463Z,3.00
2023-02-25T01:36:24.090Z,3.00
2023-02-25T01:36:57.040Z,3.00
2023-02-25T01:37:28.882Z,3.00
2023-02-25T01:38:00.717Z,3.00
2023-02-25T01:38:33.805Z,3.00
2023-02-25T01:39:09.994Z,3.00
2023-02-25T01:39:41.953Z,3.00
2023-02-25T01:40:18.074Z,3.00
2023-02-25T01:40:58.471Z,3.00
2023-02-25T01:41:33.084Z,3.00
2023-02-25T01:42:14.420Z,3.00
2023-02-25T01:42:46.935Z,3.00
2023-02-25T01:43:19.171Z,3.00
2023-02-25T01:44:09.172Z,3.00
2023-02-25T01:45:19.534Z,3.00
2023-02-25T01:45:54.343Z,3.00
2023-02-25T01:46:26.317Z,3.33
2023-02-25T01:46:59.008Z,4.00
2023-02-25T01:47:38.010Z,4.00
2023-02-25T01:48:15.711Z,4.00
2023-02-25T01:48:47.517Z,4.00
2023-02-25T01:49:29.165Z,4.00
2023-02-25T01:50:01.061Z,4.00
2023-02-25T01:50:52.263Z,4.00
2023-02-25T01:52:08.798Z,4.00
2023-02-25T01:52:42.551Z,4.00
2023-02-25T01:53:17.714Z,4.00
2023-02-25T01:53:49.608Z,4.00
2023-02-25T01:54:21.945Z,4.00
2023-02-25T01:54:57.554Z,4.00
2023-02-25T01:55:29.744Z,4.00
2023-02-25T01:56:02.898Z,4.00
2023-02-25T01:56:39.539Z,4.00
2023-02-25T01:57:14.127Z,4.00
2023-02-25T01:57:48.019Z,4.00
2023-02-25T01:58:22.052Z,4.00
2023-02-25T01:58:54.813Z,4.00
2023-02-25T01:59:29.375Z,4.00
2023-02-25T02:00:01.973Z,4.00
2023-02-25T02:00:35.021Z,4.00
2023-02-25T02:01:12.831Z,4.00
2023-02-25T02:01:45.211Z,4.00
2023-02-25T02:02:23.513Z,4.00
2023-02-25T02:02:57.545Z,4.00
2023-02-25T02:03:35.448Z,4.00
2023-02-25T02:04:10.762Z,4.00
2023-02-25T02:04:44.724Z,4.00
2023-02-25T02:05:17.325Z,4.00
2023-02-25T02:06:09.713Z,4.00
2023-02-25T02:06:44.678Z,4.00
2023-02-25T02:07:17.534Z,4.00
2023-02-25T02:07:49.322Z,4.00
2023-02-25T02:08:21.325Z,4.00
2023-02-25T02:08:53.192Z,4.00
2023-02-25T02:09:27.732Z,4.00
2023-02-25T02:10:00.664Z,4.00
2023-02-25T02:10:32.624Z,4.00
2023-02-25T02:11:04.912Z,4.00
2023-02-25T02:11:36.732Z,4.00
2023-02-25T02:12:08.659Z,4.00
2023-02-25T02:12:46.278Z,4.00
2023-02-25T02:13:19.226Z,4.00
2023-02-25T02:13:56.636Z,4.00
2023-02-25T02:14:42.789Z,4.00
2023-02-25T02:15:15.873Z,4.00
2023-02-25T02:16:28.818Z,4.00
2023-02-25T02:17:14.316Z,4.00
2023-02-25T02:17:59.449Z,4.00
2023-02-25T02:18:35.659Z,4.00
2023-02-25T02:19:34.929Z,4.00
2023-02-25T02:20:54.421Z,4.00
2023-02-25T02:21:45.011Z,4.00
2023-02-25T02:22:46.102Z,4.00
2023-02-25T02:23:44.697Z,4.00
2023-02-25T02:24:22.148Z,4.00
2023-02-25T02:25:15.029Z,4.00
2023-02-25T02:26:19.034Z,4.00
2023-02-25T02:27:03.745Z,4.00
2023-02-25T02:27:53.341Z,4.00
2023-02-25T02:29:02.147Z,4.00
2023-02-25T02:29:52.288Z,4.00
2023-02-25T02:30:54.463Z,4.00
2023-02-25T02:32:37.232Z,4.00
2023-02-25T02:33:44.056Z,4.00
2023-02-25T02:34:26.196Z,4.00
2023-02-25T02:35:06.864Z,4.00
2023-02-25T02:35:47.150Z,4.00
2023-02-25T02:36:47.828Z,4.00
2023-02-25T02:37:26.865Z,4.00
2023-02-25T02:38:22.693Z,4.00
2023-02-25T02:39:08.731Z,4.00
2023-02-25T02:39:59.334Z,4.00
2023-02-25T02:40:52.511Z,4.00
2023-02-25T02:41:32.070Z,4.00
2023-02-25T02:42:31.384Z,4.00
2023-02-25T02:43:35.901Z,4.00
2023-02-25T02:44:20.955Z,4.00
2023-02-25T02:44:57.516Z,4.00
2023-02-25T02:45:35.323Z,4.00
2023-02-25T02:46:21.233Z,4.33
2023-02-25T02:47:03.415Z,5.00
2023-02-25T02:47:39.677Z,5.00
2023-02-25T02:48:20.685Z,5.00
2023-02-25T02:49:09.441Z,5.00
2023-02-25T02:49:49.273Z,5.00
2023-02-25T02:50:36.793Z,5.00
2023-02-25T02:51:20.819Z,5.00
2023-02-25T02:52:04.193Z,5.00
2023-02-25T02:52:43.631Z,5.00
2023-02-25T02:53:33.150Z,5.00
2023-02-25T02:54:10.625Z,5.00
2023-02-25T02:54:49.724Z,5.00
2023-02-25T02:55:31.472Z,5.00
2023-02-25T02:56:07.560Z,5.00
2023-02-25T02:56:44.322Z,5.00
2023-02-25T02:57:21.329Z,5.00
2023-02-25T02:58:01.533Z,5.00
2023-02-25T02:58:37.261Z,5.00
2023-02-25T02:59:26.140Z,5.00
2023-02-25T03:00:26.681Z,5.00
2023-02-25T03:01:05.627Z,5.00
2023-02-25T03:01:46.218Z,5.00
2023-02-25T03:02:24.181Z,5.00
2023-02-25T03:03:02.851Z,5.00
2023-02-25T03:03:41.813Z,5.00
2023-02-25T03:04:22.687Z,5.00
2023-02-25T03:05:01.547Z,5.00
2023-02-25T03:05:35.288Z,5.00
2023-02-25T03:06:20.196Z,5.00
2023-02-25T03:07:00.021Z,5.00
2023-02-25T03:07:36.982Z,5.00
2023-02-25T03:08:15.435Z,5.00
2023-02-25T03:08:56.118Z,5.00
2023-02-25T03:09:50.637Z,5.00
2023-02-25T03:10:23.345Z,5.00
2023-02-25T03:10:55.291Z,5.00
2023-02-25T03:11:27.082Z,5.00
2023-02-25T03:11:59.050Z,5.00
2023-02-25T03:12:31.022Z,5.00
2023-02-25T03:13:02.913Z,5.00
2023-02-25T03:13:34.845Z,5.00
2023-02-25T03:14:09.169Z,5.00
2023-02-25T03:14:41.155Z,5.00
2023-02-25T03:15:14.623Z,5.00
2023-02-25T03:15:49.260Z,5.00
2023-02-25T03:16:31.243Z,5.00
2023-02-25T03:17:09.818Z,5.00
2023-02-25T03:18:01.496Z,5.00
2023-02-25T03:18:43.351Z,5.00
2023-02-25T03:19:31.808Z,5.00
2023-02-25T03:20:14.465Z,5.00
2023-02-25T03:20:50.409Z,5.00
2023-02-25T03:21:30.556Z,5.00
2023-02-25T03:22:12.974Z,5.00
2023-02-25T03:22:48.997Z,5.00
2023-02-25T03:23:29.580Z,5.00
2023-02-25T03:24:05.523Z,5.00
2023-02-25T03:24:53.653Z,5.00
2023-02-25T03:25:36.049Z,5.00
2023-02-25T03:26:25.910Z,5.00
2023-02-25T03:26:57.663Z,5.00
2023-02-25T03:27:35.519Z,5.00
2023-02-25T03:28:33.411Z,5.00
2023-02-25T03:29:05.280Z,5.00
2023-02-25T03:29:37.114Z,5.00
2023-02-25T03:30:48.945Z,5.00
2023-02-25T03:31:29.639Z,5.00
2023-02-25T03:32:09.668Z,5.00
2023-02-25T03:32:48.461Z,5.00
2023-02-25T03:33:38.659Z,5.00
2023-02-25T03:34:17.922Z,5.00
2023-02-25T03:34:58.013Z,5.00
2023-02-25T03:35:32.695Z,5.00
2023-02-25T03:36:13.205Z,5.00
2023-02-25T03:36:59.457Z,5.00
2023-02-25T03:37:34.775Z,5.00
2023-02-25T03:38:14.568Z,5.00
2023-02-25T03:38:51.665Z,5.00
2023-02-25T03:39:33.372Z,5.00
2023-02-25T03:40:14.136Z,5.00
2023-02-25T03:40:50.153Z,5.00
2023-02-25T03:41:31.812Z,5.00
2023-02-25T03:42:06.274Z,5.00
2023-02-25T03:42:44.935Z,5.00
2023-02-25T03:43:25.644Z,5.00
2023-02-25T03:44:00.027Z,5.00
2023-02-25T03:44:37.407Z,5.00
2023-02-25T03:45:13.789Z,5.00
2023-02-25T03:45:45.879Z,5.00
2023-02-25T03:46:20.783Z,5.00
2023-02-25T03:46:55.371Z,5.00
2023-02-25T03:47:30.518Z,5.00
2023-02-25T03:48:06.184Z,5.00
2023-02-25T03:48:39.202Z,5.00
2023-02-25T03:49:19.268Z,5.00
2023-02-25T03:50:03.103Z,5.00
2023-02-25T03:50:44.881Z,5.00
2023-02-25T03:51:23.792Z,5.00
2023-02-25T03:51:59.757Z,5.00
2023-02-25T03:52:31.766Z,5.00
2023-02-25T03:53:04.701Z,5.00
2023-02-25T03:53:36.576Z,5.00
2023-02-25T03:54:08.539Z,5.00
2023-02-25T03:54:40.450Z,5.00
2023-02-25T03:55:15.848Z,5.00
2023-02-25T03:55:47.935Z,5.00
2023-02-25T03:56:20.099Z,5.00
2023-02-25T03:56:52.359Z,5.00
2023-02-25T03:57:27.574Z,5.00
2023-02-25T03:57:59.375Z,5.00
2023-02-25T03:58:36.009Z,5.00
2023-02-25T03:59:07.794Z,5.00
2023-02-25T03:59:39.772Z,5.00
2023-02-25T04:00:18.218Z,5.00
2023-02-25T04:00:55.249Z,5.00
2023-02-25T04:01:30.860Z,5.00
2023-02-25T04:02:03.580Z,5.00
2023-02-25T04:02:35.515Z,5.00
2023-02-25T04:03:07.355Z,5.00
2023-02-25T04:03:39.483Z,5.00
2023-02-25T04:04:11.265Z,5.00
2023-02-25T04:04:43.156Z,5.00
2023-02-25T04:05:17.688Z,5.00
2023-02-25T04:05:49.480Z,5.00
2023-02-25T04:06:23.547Z,5.00
2023-02-25T04:06:55.571Z,5.00
2023-02-25T04:07:27.385Z,5.00
2023-02-25T04:08:00.085Z,5.00
2023-02-25T04:08:32.066Z,5.00
2023-02-25T04:09:04.729Z,5.00
2023-02-25T04:09:36.495Z,5.00
2023-02-25T04:10:11.226Z,5.00
2023-02-25T04:10:46.999Z,5.00
2023-02-25T04:11:18.817Z,5.00
2023-02-25T04:11:50.593Z,5.00
2023-02-25T04:12:22.369Z,5.00
2023-02-25T04:12:55.345Z,5.00
2023-02-25T04:13:27.142Z,5.00
2023-02-25T04:13:59.065Z,5.00
2023-02-25T04:14:30.853Z,5.00
2023-02-25T04:15:04.016Z,5.00
2023-02-25T04:15:36.466Z,5.00
2023-02-25T04:16:11.059Z,5.00
2023-02-25T04:16:42.993Z,5.00
2023-02-25T04:17:14.840Z,5.00
2023-02-25T04:17:47.261Z,5.00
2023-02-25T04:18:19.050Z,5.00
2023-02-25T04:18:50.835Z,5.00
2023-02-25T04:19:22.657Z,5.00
2023-02-25T04:19:54.522Z,5.00
2023-02-25T04:20:26.341Z,5.00
2023-02-25T04:20:58.124Z,5.00
2023-02-25T04:21:36.507Z,5.00
2023-02-25T04:22:08.487Z,5.00
2023-02-25T04:22:40.657Z,5.00
2023-02-25T04:23:14.897Z,5.00
2023-02-25T04:23:46.657Z,5.00
2023-02-25T04:24:18.456Z,5.00
2023-02-25T04:24:50.638Z,5.00
2023-02-25T04:25:22.411Z,5.00
2023-02-25T04:25:54.226Z,5.00
2023-02-25T04:26:26.110Z,5.00
2023-02-25T04:26:58.676Z,5.00
2023-02-25T04:27:32.551Z,5.00
2023-02-25T04:28:04.529Z,5.00
2023-02-25T04:28:36.321Z,4.00
2023-02-25T04:29:08.158Z,4.00
2023-02-25T04:29:39.978Z,4.00
2023-02-25T04:30:13.428Z,4.00
2023-02-25T04:30:45.334Z,4.00
2023-02-25T04:31:17.367Z,4.00
2023-02-25T04:31:49.379Z,4.00
2023-02-25T04:32:21.421Z,4.00
2023-02-25T04:32:53.398Z,4.00
2023-02-25T04:33:25.252Z,4.00
2023-02-25T04:33:58.367Z,4.00
2023-02-25T04:34:30.199Z,4.00
2023-02-25T04:35:03.325Z,4.00
2023-02-25T04:35:35.240Z,4.00
2023-02-25T04:36:25.677Z,4.00
2023-02-25T04:36:57.557Z,4.00
2023-02-25T04:37:30.420Z,4.00
2023-02-25T04:38:02.508Z,4.00
2023-02-25T04:38:34.263Z,4.00
2023-02-25T04:39:06.390Z,4.00
2023-02-25T04:39:38.226Z,4.00
2023-02-25T04:40:16.145Z,4.00
2023-02-25T04:40:47.859Z,4.00
2023-02-25T04:41:19.775Z,4.00
2023-02-25T04:41:51.557Z,4.00
2023-02-25T04:42:23.451Z,4.00
2023-02-25T04:42:55.210Z,4.00
2023-02-25T04:43:27.008Z,4.00
2023-02-25T04:43:59.955Z,4.00
2023-02-25T04:44:31.766Z,4.67
2023-02-25T04:45:04.138Z,5.00
2023-02-25T04:45:36.045Z,5.00
2023-02-25T04:46:07.871Z,5.00
2023-02-25T04:46:42.134Z,5.00
2023-02-25T04:47:14.114Z,5.00
2023-02-25T04:47:45.938Z,5.00
2023-02-25T04:48:24.351Z,5.00
2023-02-25T04:48:56.241Z,5.00
2023-02-25T04:49:28.126Z,5.00
2023-02-25T04:49:59.949Z,5.00
2023-02-25T04:50:31.837Z,5.00
2023-02-25T04:51:04.204Z,5.00
2023-02-25T04:51:37.730Z,5.00
2023-02-25T04:52:09.526Z,5.00
2023-02-25T04:52:41.330Z,5.00
2023-02-25T04:53:13.222Z,5.00
2023-02-25T04:53:46.847Z,5.00
2023-02-25T04:54:20.705Z,5.00
2023-02-25T04:54:52.547Z,5.00
2023-02-25T04:55:24.374Z,5.00
2023-02-25T04:55:56.177Z,5.00
2023-02-25T04:56:28.088Z,5.00
2023-02-25T04:56:59.879Z,5.00
2023-02-25T04:57:31.701Z,5.00
2023-02-25T04:58:03.599Z,5.00
2023-02-25T04:58:37.400Z,5.00
2023-02-25T04:59:11.411Z,5.00
2023-02-25T04:59:43.415Z,5.00
2023-02-25T05:00:24.098Z,5.00
2023-02-25T05:00:58.028Z,5.00
2023-02-25T05:01:31.636Z,5.00
2023-02-25T05:02:04.173Z,5.00
2023-02-25T05:02:36.045Z,5.00
2023-02-25T05:03:07.881Z,5.00
2023-02-25T05:03:40.818Z,5.00
2023-02-25T05:04:12.638Z,5.00
2023-02-25T05:04:44.658Z,5.00
2023-02-25T05:05:17.541Z,5.00
2023-02-25T05:05:49.309Z,5.00
2023-02-25T05:06:21.296Z,5.00
2023-02-25T05:06:53.164Z,5.00
2023-02-25T05:07:24.999Z,5.00
2023-02-25T05:07:56.762Z,5.00
2023-02-25T05:08:28.998Z,5.00
2023-02-25T05:09:00.875Z,5.00
2023-02-25T05:09:33.357Z,5.00
2023-02-25T05:10:07.025Z,5.00
2023-02-25T05:10:38.852Z,5.00
2023-02-25T05:11:10.763Z,5.00
2023-02-25T05:11:42.613Z,5.00
2023-02-25T05:12:14.869Z,5.00
2023-02-25T05:12:46.730Z,5.00
2023-02-25T05:13:19.561Z,5.00
2023-02-25T05:13:52.160Z,5.00
2023-02-25T05:14:24.309Z,5.00
2023-02-25T05:14:56.081Z,5.00
2023-02-25T05:15:27.967Z,5.00
2023-02-25T05:16:08.157Z,5.00
2023-02-25T05:16:40.077Z,5.00
2023-02-25T05:17:13.210Z,5.00
2023-02-25T05:17:45.082Z,5.00
2023-02-25T05:18:19.911Z,5.00
2023-02-25T05:18:52.340Z,5.00
2023-02-25T05:19:25.801Z,5.00
2023-02-25T05:19:58.648Z,4.67
2023-02-25T05:20:30.586Z,4.00
2023-02-25T05:21:02.431Z,4.00
2023-02-25T05:21:35.010Z,4.00
2023-02-25T05:22:06.984Z,4.00
2023-02-25T05:22:39.959Z,4.00
2023-02-25T05:23:12.653Z,4.00
2023-02-25T05:23:46.337Z,4.00
2023-02-25T05:24:19.035Z,4.00
2023-02-25T05:24:50.898Z,4.00
2023-02-25T05:25:22.867Z,4.00
2023-02-25T05:25:55.049Z,4.00
2023-02-25T05:26:26.888Z,4.00
2023-02-25T05:26:58.685Z,4.00
2023-02-25T05:27:30.549Z,4.00
2023-02-25T05:28:02.592Z,4.00
2023-02-25T05:28:34.994Z,4.00
2023-02-25T05:29:07.228Z,4.00
2023-02-25T05:29:39.100Z,4.00
2023-02-25T05:30:11.810Z,4.00
2023-02-25T05:30:43.629Z,4.00
2023-02-25T05:31:15.484Z,4.00
2023-02-25T05:31:47.927Z,4.00
2023-02-25T05:32:20.045Z,4.00
2023-02-25T05:32:52.232Z,4.00
2023-02-25T05:33:24.650Z,4.00
2023-02-25T05:33:56.479Z,4.00
2023-02-25T05:34:28.363Z,4.00
2023-02-25T05:35:00.732Z,4.00
2023-02-25T05:35:33.134Z,4.00
2023-02-25T05:36:14.350Z,4.00
2023-02-25T05:36:46.954Z,4.00
2023-02-25T05:37:18.766Z,4.00
2023-02-25T05:37:50.622Z,4.00
2023-02-25T05:38:22.597Z,4.00
2023-02-25T05:38:56.050Z,4.00
2023-02-25T05:39:27.785Z,4.00
2023-02-25T05:39:59.638Z,4.00
2023-02-25T05:40:31.428Z,4.00
2023-02-25T05:41:08.498Z,4.00
2023-02-25T05:41:40.836Z,4.00
2023-02-25T05:42:12.653Z,4.00
2023-02-25T05:42:44.492Z,4.00
2023-02-25T05:43:18.414Z,4.00
2023-02-25T05:43:50.261Z,4.00
2023-02-25T05:44:22.323Z,4.00
2023-02-25T05:44:54.383Z,4.00
2023-02-25T05:45:26.300Z,4.00
2023-02-25T05:46:00.367Z,4.00
2023-02-25T05:46:32.191Z,4.00
2023-02-25T05:47:04.130Z,4.00
2023-02-25T05:47:36.331Z,4.00
2023-02-25T05:48:08.303Z,4.00
2023-02-25T05:48:46.113Z,4.00
2023-02-25T05:49:17.931Z,4.00
2023-02-25T05:49:49.757Z,4.00
2023-02-25T05:50:21.496Z,4.00
2023-02-25T05:51:01.585Z,4.00
2023-02-25T05:51:33.507Z,4.00
2023-02-25T05:52:05.284Z,4.00
2023-02-25T05:52:37.149Z,4.00
2023-02-25T05:53:10.003Z,4.00
2023-02-25T05:53:44.773Z,4.00
2023-02-25T05:54:17.134Z,4.00
2023-02-25T05:54:48.914Z,4.00
2023-02-25T05:55:21.338Z,4.00
2023-02-25T05:55:53.240Z,4.00
2023-02-25T05:56:28.356Z,4.00
2023-02-25T05:57:02.010Z,4.00
2023-02-25T05:57:33.844Z,4.00
2023-02-25T05:58:05.643Z,4.00
2023-02-25T05:58:37.479Z,4.00
2023-02-25T05:59:11.371Z,4.00
2023-02-25T05:59:43.291Z,4.00
2023-02-25T06:00:15.752Z,4.00
2023-02-25T06:00:47.781Z,4.00
2023-02-25T06:01:22.987Z,4.00
2023-02-25T06:01:54.895Z,4.00
2023-02-25T06:02:26.820Z,4.00
2023-02-25T06:02:58.678Z,4.00
2023-02-25T06:03:30.520Z,4.00
2023-02-25T06:04:02.756Z,4.00
2023-02-25T06:04:34.596Z,4.00
2023-02-25T06:05:07.239Z,4.00
2023-02-25T06:05:43.304Z,4.00
2023-02-25T06:06:18.008Z,4.00
2023-02-25T06:06:50.468Z,4.00
2023-02-25T06:07:22.358Z,4.00
2023-02-25T06:07:54.238Z,4.00
2023-02-25T06:08:26.248Z,4.00
2023-02-25T06:08:59.177Z,4.00
2023-02-25T06:09:32.268Z,4.00
2023-02-25T06:10:04.934Z,4.00
2023-02-25T06:10:38.794Z,4.00
2023-02-25T06:11:14.458Z,4.00
2023-02-25T06:11:48.110Z,4.00
2023-02-25T06:12:19.971Z,4.00
2023-02-25T06:12:51.880Z,4.00
2023-02-25T06:13:23.701Z,4.00
2023-02-25T06:13:57.232Z,4.00
2023-02-25T06:14:29.175Z,4.00
2023-02-25T06:15:01.040Z,4.00
2023-02-25T06:15:32.888Z,4.00
2023-02-25T06:16:05.868Z,4.00
2023-02-25T06:16:39.424Z,4.00
2023-02-25T06:17:12.009Z,3.33
2023-02-25T06:17:43.977Z,3.00
2023-02-25T06:18:15.791Z,3.00
2023-02-25T06:18:49.724Z,3.00
2023-02-25T06:19:21.658Z,3.00
2023-02-25T06:19:53.806Z,3.00
2023-02-25T06:20:25.732Z,3.00
2023-02-25T06:21:05.528Z,3.00
2023-02-25T06:21:37.473Z,3.00
2023-02-25T06:22:45.616Z,3.00
2023-02-25T06:23:18.721Z,3.00
2023-02-25T06:23:53.840Z,3.00
2023-02-25T06:25:01.724Z,3.00
2023-02-25T06:25:36.692Z,3.00
2023-02-25T06:26:43.577Z,3.00
2023-02-25T06:27:49.653Z,3.00
2023-02-25T06:28:24.765Z,3.00
2023-02-25T06:28:57.325Z,3.00
2023-02-25T06:29:30.595Z,3.00
2023-02-25T06:31:26.396Z,3.00
2023-02-25T06:32:01.693Z,3.00
2023-02-25T06:32:35.505Z,3.00
2023-02-25T06:33:10.558Z,3.00
2023-02-25T06:33:45.852Z,3.00
2023-02-25T06:34:19.679Z,3.00
2023-02-25T06:34:53.305Z,3.00
2023-02-25T06:35:28.530Z,3.00
2023-02-25T06:36:01.377Z,3.00
2023-02-25T06:36:36.618Z,3.00
2023-02-25T06:37:11.245Z,3.00
2023-02-25T06:37:44.845Z,3.00
2023-02-25T06:38:18.942Z,3.00
2023-02-25T06:38:50.856Z,3.00
2023-02-25T06:39:26.201Z,3.00
2023-02-25T06:40:01.289Z,3.00
2023-02-25T06:40:38.439Z,3.00
2023-02-25T06:41:17.461Z,3.00
2023-02-25T06:42:25.633Z,3.00
2023-02-25T06:42:57.714Z,3.00
2023-02-25T06:43:29.553Z,3.00
2023-02-25T06:44:42.745Z,3.00
2023-02-25T06:45:17.755Z,3.00
2023-02-25T06:45:52.637Z,3.00
2023-02-25T06:46:26.494Z,3.00
2023-02-25T06:46:58.624Z,3.00
2023-02-25T06:47:30.514Z,3.00
2023-02-25T06:48:02.440Z,3.00
2023-02-25T06:48:34.389Z,3.00
2023-02-25T06:49:06.191Z,3.00
2023-02-25T06:49:38.126Z,3.00
2023-02-25T06:50:10.453Z,3.00
2023-02-25T06:50:42.657Z,3.00
2023-02-25T06:51:14.997Z,3.00
2023-02-25T06:51:48.903Z,3.00
2023-02-25T06:52:20.747Z,3.00
2023-02-25T06:52:52.643Z,3.00
2023-02-25T06:53:24.586Z,3.00
2023-02-25T06:53:56.406Z,3.00
2023-02-25T06:54:28.340Z,3.00
2023-02-25T06:55:00.149Z,3.00
2023-02-25T06:55:32.202Z,3.00
2023-02-25T06:56:04.367Z,3.00
2023-02-25T06:56:36.177Z,3.00
2023-02-25T06:57:08.049Z,3.00
2023-02-25T06:57:39.918Z,3.00
2023-02-25T06:58:12.521Z,3.00
2023-02-25T06:58:45.465Z,3.00
2023-02-25T06:59:17.298Z,3.00
2023-02-25T06:59:49.969Z,3.00
2023-02-25T07:00:22.129Z,3.00
2023-02-25T07:00:53.955Z,3.00
2023-02-25T07:01:26.417Z,3.00
2023-02-25T07:01:59.494Z,3.00
2023-02-25T07:02:32.052Z,3.00
2023-02-25T07:03:04.128Z,3.00
2023-02-25T07:03:36.441Z,3.00
2023-02-25T07:04:08.249Z,3.00
2023-02-25T07:04:43.571Z,3.00
2023-02-25T07:05:15.689Z,3.00
2023-02-25T07:05:47.464Z,3.00
2023-02-25T07:06:19.674Z,3.00
2023-02-25T07:06:51.551Z,3.00
2023-02-25T07:07:23.551Z,3.00
2023-02-25T07:07:55.421Z,3.00
2023-02-25T07:08:27.254Z,3.67
2023-02-25T07:08:59.057Z,4.00
2023-02-25T07:09:30.848Z,4.00
2023-02-25T07:10:02.716Z,4.00
2023-02-25T07:10:35.352Z,4.00
2023-02-25T07:11:18.797Z,4.00
2023-02-25T07:11:50.563Z,4.00
2023-02-25T07:12:22.647Z,4.00
2023-02-25T07:12:54.428Z,4.00
2023-02-25T07:13:26.262Z,4.00
2023-02-25T07:13:58.303Z,4.00
2023-02-25T07:14:30.109Z,4.00
2023-02-25T07:15:02.023Z,4.00
2023-02-25T07:15:34.053Z,4.00
2023-02-25T07:16:06.222Z,4.00
2023-02-25T07:16:38.125Z,4.00
2023-02-25T07:17:09.912Z,3.00
2023-02-25T07:17:41.786Z,3.00
2023-02-25T07:18:13.653Z,3.00
2023-02-25T07:18:45.681Z,3.00
2023-02-25T07:19:17.459Z,3.00
2023-02-25T07:19:49.341Z,3.00
2023-02-25T07:20:21.225Z,3.00
2023-02-25T07:20:53.086Z,3.00
2023-02-25T07:21:29.385Z,3.00
2023-02-25T07:22:01.126Z,3.00
2023-02-25T07:22:32.984Z,3.00
2023-02-25T07:23:05.458Z,3.00
2023-02-25T07:23:37.310Z,3.00
2023-02-25T07:24:12.949Z,3.00
2023-02-25T07:24:45.594Z,3.00
2023-02-25T07:25:17.620Z,3.00
2023-02-25T07:25:50.340Z,3.00
2023-02-25T07:26:22.523Z,3.00
2023-02-25T07:26:55.812Z,3.00
2023-02-25T07:27:27.678Z,3.00
2023-02-25T07:27:59.917Z,3.00
2023-02-25T07:28:32.146Z,3.00
2023-02-25T07:29:05.379Z,3.00
2023-02-25T07:29:37.141Z,3.00
2023-02-25T07:30:13.927Z,3.00
2023-02-25T07:30:46.296Z,3.00
2023-02-25T07:31:20.154Z,3.00
2023-02-25T07:31:52.109Z,3.00
2023-02-25T07:32:25.622Z,3.00
2023-02-25T07:32:57.990Z,3.00
2023-02-25T07:33:30.884Z,3.00
2023-02-25T07:34:04.531Z,3.00
2023-02-25T07:34:39.206Z,3.00
2023-02-25T07:35:11.203Z,3.00
2023-02-25T07:35:42.998Z,3.00
2023-02-25T07:36:16.043Z,3.00
2023-02-25T07:36:47.940Z,3.00
2023-02-25T07:37:19.747Z,3.00
2023-02-25T07:37:51.881Z,3.00
2023-02-25T07:38:24.771Z,3.00
2023-02-25T07:38:58.034Z,3.00
2023-02-25T07:39:29.851Z,3.00
2023-02-25T07:40:01.879Z,3.00
2023-02-25T07:40:33.660Z,3.00
2023-02-25T07:41:08.239Z,3.00
2023-02-25T07:41:40.372Z,3.00
2023-02-25T07:42:12.162Z,3.00
2023-02-25T07:42:44.405Z,3.00
2023-02-25T07:43:16.212Z,3.00
2023-02-25T07:43:48.324Z,3.00
2023-02-25T07:44:20.411Z,3.00
2023-02-25T07:45:25.852Z,3.00
2023-02-25T07:45:58.635Z,3.00
2023-02-25T07:46:30.989Z,3.00
2023-02-25T07:47:02.940Z,3.00
2023-02-25T07:47:34.850Z,3.00
2023-02-25T07:48:06.649Z,3.00
2023-02-25T07:48:38.945Z,3.00
2023-02-25T07:49:10.959Z,3.00
2023-02-25T07:50:15.634Z,3.00
2023-02-25T07:51:23.005Z,3.00
2023-02-25T07:51:55.557Z,2.33
2023-02-25T07:52:27.493Z,2.00